DAL2237 KCHS-KDTW
Flight info
| Callsign | DAL2237 |
|---|---|
| Flight time | 1h 50m |
| Altitude | 38000 |
| Route | MLTRE3 JYMSE SCAMS BKW JAMOX KLYNK3 |
| Aircraft | A20N/M-SDE2E3FGHIRWXY/LB1 |
Departure
| Time | 2026-04-20 03:31 |
|---|---|
| Airport | Charleston International Airport (KCHS) |
Arrival
| Time | 2026-04-20 05:21 |
|---|---|
| Airport | Detroit Metropolitan Wayne County Airport (KDTW) |
| Time | Latitude | Longitude | Altitude | Speed | Heading |
|---|---|---|---|---|---|
| 2026-04-20 02:59 | 32.88600 | -80.03736 | 41 ft | 0 kts | 241° |
| 2026-04-20 03:24 | 32.88606 | -80.03722 | 39 ft | 4 kts | 258° |
| 2026-04-20 03:25 | 32.88611 | -80.03697 | 41 ft | 4 kts | 252° |
| 2026-04-20 03:25 | 32.88613 | -80.03673 | 41 ft | 4 kts | 320° |
| 2026-04-20 03:25 | 32.88594 | -80.03670 | 37 ft | 4 kts | 9° |
| 2026-04-20 03:25 | 32.88577 | -80.03674 | 41 ft | 0 kts | 10° |
| 2026-04-20 03:28 | 32.88579 | -80.03673 | 41 ft | 2 kts | 10° |
| 2026-04-20 03:28 | 32.88612 | -80.03666 | 41 ft | 8 kts | 10° |
| 2026-04-20 03:28 | 32.88807 | -80.03636 | 41 ft | 20 kts | 8° |
| 2026-04-20 03:29 | 32.88950 | -80.03612 | 47 ft | 21 kts | 8° |
| 2026-04-20 03:29 | 32.89055 | -80.03533 | 49 ft | 18 kts | 52° |
| 2026-04-20 03:29 | 32.89130 | -80.03419 | 49 ft | 17 kts | 52° |
| 2026-04-20 03:29 | 32.89200 | -80.03294 | 47 ft | 20 kts | 58° |
| 2026-04-20 03:30 | 32.89269 | -80.03272 | 46 ft | 0 kts | 329° |
| 2026-04-20 03:30 | 32.89344 | -80.03327 | 47 ft | 43 kts | 327° |
| 2026-04-20 03:30 | 32.89792 | -80.03670 | 51 ft | 109 kts | 328° |
| 2026-04-20 03:30 | 32.90601 | -80.04280 | 64 ft | 162 kts | 328° |
| 2026-04-20 03:31 | 32.91516 | -80.04959 | 731 ft | 155 kts | 330° |
| 2026-04-20 03:31 | 32.92451 | -80.05563 | 1460 ft | 149 kts | 340° |
| 2026-04-20 03:31 | 32.93390 | -80.06047 | 2251 ft | 150 kts | 342° |
| 2026-04-20 03:31 | 32.94404 | -80.06514 | 2996 ft | 163 kts | 342° |
| 2026-04-20 03:32 | 32.95225 | -80.06885 | 3560 ft | 171 kts | 342° |
| 2026-04-20 03:32 | 32.96226 | -80.07325 | 4185 ft | 179 kts | 342° |
| 2026-04-20 03:33 | 32.97421 | -80.07835 | 4812 ft | 190 kts | 342° |
| 2026-04-20 03:33 | 32.98684 | -80.08447 | 5366 ft | 202 kts | 339° |
| 2026-04-20 03:33 | 33.00008 | -80.09143 | 5913 ft | 214 kts | 337° |
| 2026-04-20 03:33 | 33.01420 | -80.09892 | 6400 ft | 231 kts | 338° |
| 2026-04-20 03:34 | 33.02964 | -80.10662 | 6861 ft | 252 kts | 338° |
| 2026-04-20 03:34 | 33.04644 | -80.11458 | 7540 ft | 263 kts | 338° |
| 2026-04-20 03:34 | 33.06350 | -80.12271 | 8498 ft | 266 kts | 337° |
| 2026-04-20 03:34 | 33.08079 | -80.13105 | 9441 ft | 271 kts | 336° |
| 2026-04-20 03:35 | 33.09847 | -80.13961 | 10265 ft | 279 kts | 335° |
| 2026-04-20 03:35 | 33.11711 | -80.14869 | 10685 ft | 301 kts | 335° |
| 2026-04-20 03:35 | 33.13670 | -80.15824 | 11270 ft | 314 kts | 335° |
| 2026-04-20 03:35 | 33.15706 | -80.16813 | 12114 ft | 318 kts | 334° |
| 2026-04-20 03:36 | 33.17763 | -80.17812 | 13054 ft | 320 kts | 334° |
| 2026-04-20 03:36 | 33.19832 | -80.18819 | 13961 ft | 323 kts | 333° |
| 2026-04-20 03:36 | 33.21926 | -80.19839 | 14709 ft | 328 kts | 333° |
| 2026-04-20 03:36 | 33.24059 | -80.20882 | 15382 ft | 335 kts | 333° |
| 2026-04-20 03:37 | 33.26235 | -80.21945 | 16085 ft | 341 kts | 333° |
| 2026-04-20 03:37 | 33.28450 | -80.23026 | 16787 ft | 347 kts | 332° |
| 2026-04-20 03:37 | 33.30671 | -80.24112 | 17501 ft | 352 kts | 332° |
| 2026-04-20 03:37 | 33.32952 | -80.25224 | 18235 ft | 357 kts | 333° |
| 2026-04-20 03:38 | 33.35283 | -80.26315 | 18873 ft | 363 kts | 333° |
| 2026-04-20 03:38 | 33.37647 | -80.27399 | 19538 ft | 365 kts | 333° |
| 2026-04-20 03:38 | 33.40030 | -80.28487 | 20221 ft | 368 kts | 333° |
| 2026-04-20 03:38 | 33.42428 | -80.29582 | 20900 ft | 370 kts | 332° |
| 2026-04-20 03:39 | 33.44839 | -80.30686 | 21547 ft | 373 kts | 332° |
| 2026-04-20 03:39 | 33.47271 | -80.31801 | 22193 ft | 376 kts | 332° |
| 2026-04-20 03:39 | 33.49718 | -80.32924 | 22849 ft | 378 kts | 331° |
| 2026-04-20 03:39 | 33.52154 | -80.34041 | 23472 ft | 381 kts | 331° |
| 2026-04-20 03:40 | 33.54704 | -80.35037 | 24028 ft | 391 kts | 338° |
| 2026-04-20 03:40 | 33.57394 | -80.35704 | 24542 ft | 398 kts | 341° |
| 2026-04-20 03:40 | 33.60145 | -80.36228 | 25027 ft | 403 kts | 343° |
| 2026-04-20 03:40 | 33.62941 | -80.36677 | 25503 ft | 407 kts | 343° |
| 2026-04-20 03:41 | 33.65762 | -80.37095 | 25987 ft | 410 kts | 343° |
| 2026-04-20 03:41 | 33.68599 | -80.37511 | 26466 ft | 412 kts | 343° |
| 2026-04-20 03:41 | 33.71445 | -80.37938 | 26918 ft | 414 kts | 343° |
| 2026-04-20 03:41 | 33.74270 | -80.38373 | 27364 ft | 416 kts | 343° |
| 2026-04-20 03:42 | 33.77145 | -80.38826 | 27798 ft | 418 kts | 342° |
| 2026-04-20 03:42 | 33.80029 | -80.39288 | 28239 ft | 419 kts | 342° |
| 2026-04-20 03:42 | 33.82929 | -80.39756 | 28667 ft | 422 kts | 342° |
| 2026-04-20 03:42 | 33.85848 | -80.40230 | 29087 ft | 425 kts | 342° |
| 2026-04-20 03:43 | 33.88786 | -80.40708 | 29451 ft | 428 kts | 342° |
| 2026-04-20 03:43 | 33.91741 | -80.41189 | 29849 ft | 430 kts | 342° |
| 2026-04-20 03:43 | 33.94716 | -80.41671 | 30247 ft | 432 kts | 342° |
| 2026-04-20 03:43 | 33.97663 | -80.42149 | 30568 ft | 434 kts | 342° |
| 2026-04-20 03:44 | 34.00662 | -80.42635 | 30890 ft | 436 kts | 342° |
| 2026-04-20 03:44 | 34.03677 | -80.43123 | 31235 ft | 438 kts | 342° |
| 2026-04-20 03:44 | 34.06693 | -80.43612 | 31600 ft | 438 kts | 342° |
| 2026-04-20 03:44 | 34.09705 | -80.44097 | 32061 ft | 436 kts | 342° |
| 2026-04-20 03:45 | 34.12706 | -80.44580 | 32536 ft | 434 kts | 342° |
| 2026-04-20 03:45 | 34.15695 | -80.45063 | 32963 ft | 432 kts | 341° |
| 2026-04-20 03:45 | 34.18669 | -80.45546 | 33387 ft | 431 kts | 341° |
| 2026-04-20 03:45 | 34.21633 | -80.46028 | 33803 ft | 429 kts | 341° |
| 2026-04-20 03:46 | 34.24547 | -80.46503 | 34204 ft | 427 kts | 341° |
| 2026-04-20 03:46 | 34.27485 | -80.46983 | 34536 ft | 426 kts | 341° |
| 2026-04-20 03:46 | 34.30425 | -80.47464 | 34820 ft | 426 kts | 341° |
| 2026-04-20 03:46 | 34.33358 | -80.47946 | 35080 ft | 426 kts | 341° |
| 2026-04-20 03:47 | 34.36296 | -80.48429 | 35335 ft | 426 kts | 341° |
| 2026-04-20 03:47 | 34.39235 | -80.48912 | 35617 ft | 427 kts | 341° |
| 2026-04-20 03:47 | 34.42180 | -80.49396 | 35832 ft | 427 kts | 341° |
| 2026-04-20 03:47 | 34.45124 | -80.49879 | 36086 ft | 427 kts | 341° |
| 2026-04-20 03:48 | 34.48068 | -80.50361 | 36327 ft | 427 kts | 341° |
| 2026-04-20 03:48 | 34.51010 | -80.50843 | 36567 ft | 426 kts | 341° |
| 2026-04-20 03:48 | 34.53910 | -80.51319 | 36794 ft | 426 kts | 341° |
| 2026-04-20 03:48 | 34.56849 | -80.51803 | 37026 ft | 426 kts | 341° |
| 2026-04-20 03:49 | 34.59793 | -80.52287 | 37242 ft | 426 kts | 340° |
| 2026-04-20 03:49 | 34.62729 | -80.52776 | 37521 ft | 426 kts | 340° |
| 2026-04-20 03:49 | 34.65661 | -80.53290 | 37694 ft | 426 kts | 340° |
| 2026-04-20 03:49 | 34.68589 | -80.53820 | 37933 ft | 426 kts | 340° |
| 2026-04-20 03:50 | 34.71512 | -80.54355 | 38197 ft | 424 kts | 340° |
| 2026-04-20 03:50 | 34.74444 | -80.54897 | 38244 ft | 428 kts | 340° |
| 2026-04-20 03:50 | 34.80353 | -80.55994 | 38244 ft | 437 kts | 340° |
| 2026-04-20 03:51 | 34.86432 | -80.57114 | 38243 ft | 446 kts | 340° |
| 2026-04-20 03:51 | 34.92594 | -80.58233 | 38238 ft | 448 kts | 340° |
| 2026-04-20 03:52 | 34.98755 | -80.59348 | 38238 ft | 448 kts | 340° |
| 2026-04-20 03:52 | 35.04913 | -80.60471 | 38238 ft | 447 kts | 340° |
| 2026-04-20 03:53 | 35.11024 | -80.61592 | 38238 ft | 447 kts | 340° |
| 2026-04-20 03:53 | 35.17180 | -80.62724 | 38268 ft | 447 kts | 341° |
| 2026-04-20 03:54 | 35.23335 | -80.63858 | 38269 ft | 447 kts | 340° |
| 2026-04-20 03:54 | 35.29491 | -80.64993 | 38274 ft | 447 kts | 340° |
| 2026-04-20 03:55 | 35.35608 | -80.66122 | 38274 ft | 447 kts | 341° |
| 2026-04-20 03:55 | 35.41764 | -80.67260 | 38285 ft | 448 kts | 341° |
| 2026-04-20 03:56 | 35.47933 | -80.68403 | 38271 ft | 449 kts | 341° |
| 2026-04-20 03:56 | 35.54107 | -80.69548 | 38274 ft | 449 kts | 341° |
| 2026-04-20 03:57 | 35.60282 | -80.70694 | 38255 ft | 449 kts | 341° |
| 2026-04-20 03:57 | 35.66407 | -80.71833 | 38247 ft | 448 kts | 341° |
| 2026-04-20 03:58 | 35.72581 | -80.72984 | 38246 ft | 448 kts | 341° |
| 2026-04-20 03:58 | 35.78749 | -80.74135 | 38240 ft | 448 kts | 341° |
| 2026-04-20 03:59 | 35.84917 | -80.75288 | 38258 ft | 448 kts | 341° |
| 2026-04-20 03:59 | 35.91045 | -80.76435 | 38218 ft | 449 kts | 341° |
| 2026-04-20 04:00 | 35.97226 | -80.77596 | 38206 ft | 450 kts | 341° |
| 2026-04-20 04:00 | 36.03420 | -80.78759 | 38222 ft | 450 kts | 341° |
| 2026-04-20 04:01 | 36.09612 | -80.79923 | 38233 ft | 450 kts | 341° |
| 2026-04-20 04:01 | 36.15763 | -80.81081 | 38293 ft | 450 kts | 341° |
| 2026-04-20 04:02 | 36.21976 | -80.82256 | 38256 ft | 453 kts | 341° |
| 2026-04-20 04:02 | 36.28209 | -80.83435 | 38253 ft | 453 kts | 341° |
| 2026-04-20 04:03 | 36.34445 | -80.84614 | 38252 ft | 453 kts | 341° |
| 2026-04-20 04:03 | 36.40643 | -80.85788 | 38269 ft | 454 kts | 341° |
| 2026-04-20 04:04 | 36.46890 | -80.86975 | 38239 ft | 455 kts | 341° |
| 2026-04-20 04:04 | 36.53147 | -80.88167 | 38225 ft | 455 kts | 341° |
| 2026-04-20 04:05 | 36.59412 | -80.89360 | 38229 ft | 456 kts | 341° |
| 2026-04-20 04:05 | 36.65635 | -80.90547 | 38289 ft | 456 kts | 341° |
| 2026-04-20 04:06 | 36.71876 | -80.91736 | 38224 ft | 452 kts | 341° |
| 2026-04-20 04:06 | 36.78081 | -80.92923 | 38232 ft | 451 kts | 341° |
| 2026-04-20 04:07 | 36.84280 | -80.94115 | 38234 ft | 451 kts | 341° |
| 2026-04-20 04:07 | 36.90473 | -80.95307 | 38252 ft | 451 kts | 341° |
| 2026-04-20 04:08 | 36.96648 | -80.96497 | 38226 ft | 452 kts | 341° |
| 2026-04-20 04:08 | 37.02874 | -80.97698 | 38237 ft | 453 kts | 341° |
| 2026-04-20 04:09 | 37.09105 | -80.98899 | 38220 ft | 453 kts | 341° |
| 2026-04-20 04:09 | 37.15333 | -81.00103 | 38243 ft | 453 kts | 341° |
| 2026-04-20 04:10 | 37.21530 | -81.01305 | 38233 ft | 454 kts | 341° |
| 2026-04-20 04:10 | 37.27779 | -81.02517 | 38224 ft | 454 kts | 341° |
| 2026-04-20 04:11 | 37.34025 | -81.03730 | 38224 ft | 454 kts | 341° |
| 2026-04-20 04:11 | 37.40274 | -81.04946 | 38232 ft | 454 kts | 341° |
| 2026-04-20 04:12 | 37.46525 | -81.06166 | 38226 ft | 455 kts | 341° |
| 2026-04-20 04:12 | 37.52730 | -81.07378 | 38226 ft | 454 kts | 341° |
| 2026-04-20 04:13 | 37.58984 | -81.08601 | 38218 ft | 455 kts | 341° |
| 2026-04-20 04:13 | 37.65232 | -81.09826 | 38216 ft | 455 kts | 341° |
| 2026-04-20 04:14 | 37.71493 | -81.11056 | 38212 ft | 455 kts | 341° |
| 2026-04-20 04:14 | 37.77727 | -81.12388 | 38208 ft | 449 kts | 336° |
| 2026-04-20 04:15 | 37.83673 | -81.14469 | 38206 ft | 446 kts | 334° |
| 2026-04-20 04:15 | 37.89625 | -81.16667 | 38215 ft | 446 kts | 334° |
| 2026-04-20 04:16 | 37.95589 | -81.18892 | 38222 ft | 447 kts | 334° |
| 2026-04-20 04:16 | 38.01555 | -81.21124 | 38232 ft | 447 kts | 334° |
| 2026-04-20 04:17 | 38.07481 | -81.23344 | 38212 ft | 447 kts | 334° |
| 2026-04-20 04:17 | 38.13452 | -81.25587 | 38229 ft | 447 kts | 334° |
| 2026-04-20 04:18 | 38.19415 | -81.27829 | 38226 ft | 447 kts | 334° |
| 2026-04-20 04:18 | 38.25375 | -81.30075 | 38226 ft | 446 kts | 334° |
| 2026-04-20 04:19 | 38.31279 | -81.32305 | 38221 ft | 446 kts | 334° |
| 2026-04-20 04:19 | 38.37226 | -81.34553 | 38217 ft | 446 kts | 334° |
| 2026-04-20 04:20 | 38.43176 | -81.36807 | 38214 ft | 446 kts | 334° |
| 2026-04-20 04:20 | 38.48125 | -81.38685 | 38211 ft | 446 kts | 334° |
| 2026-04-20 04:21 | 38.54079 | -81.40947 | 38209 ft | 446 kts | 334° |
| 2026-04-20 04:21 | 38.60999 | -81.43581 | 38213 ft | 447 kts | 334° |
| 2026-04-20 04:22 | 38.66954 | -81.45853 | 38210 ft | 447 kts | 334° |
| 2026-04-20 04:22 | 38.72908 | -81.48128 | 38216 ft | 447 kts | 334° |
| 2026-04-20 04:23 | 38.78826 | -81.50394 | 38206 ft | 447 kts | 334° |
| 2026-04-20 04:23 | 38.84780 | -81.52676 | 38217 ft | 446 kts | 334° |
| 2026-04-20 04:24 | 38.89722 | -81.54574 | 38214 ft | 446 kts | 334° |
| 2026-04-20 04:24 | 38.95673 | -81.56859 | 38210 ft | 446 kts | 334° |
| 2026-04-20 04:25 | 39.01623 | -81.59154 | 38220 ft | 446 kts | 334° |
| 2026-04-20 04:25 | 39.07573 | -81.61452 | 38223 ft | 446 kts | 334° |
| 2026-04-20 04:26 | 39.13512 | -81.63748 | 38218 ft | 445 kts | 334° |
| 2026-04-20 04:26 | 39.19403 | -81.66030 | 38230 ft | 445 kts | 335° |
| 2026-04-20 04:27 | 39.25301 | -81.68316 | 38228 ft | 441 kts | 334° |
| 2026-04-20 04:27 | 39.31183 | -81.70604 | 38231 ft | 441 kts | 334° |
| 2026-04-20 04:28 | 39.37067 | -81.72897 | 38224 ft | 442 kts | 334° |
| 2026-04-20 04:28 | 39.42925 | -81.75182 | 38222 ft | 442 kts | 334° |
| 2026-04-20 04:29 | 39.48817 | -81.77484 | 38222 ft | 442 kts | 334° |
| 2026-04-20 04:29 | 39.54714 | -81.79793 | 38216 ft | 443 kts | 335° |
| 2026-04-20 04:30 | 39.60620 | -81.82110 | 38222 ft | 444 kts | 335° |
| 2026-04-20 04:30 | 39.66529 | -81.84431 | 38222 ft | 444 kts | 335° |
| 2026-04-20 04:31 | 39.72488 | -81.86448 | 38221 ft | 452 kts | 342° |
| 2026-04-20 04:31 | 39.78744 | -81.87614 | 38222 ft | 455 kts | 344° |
| 2026-04-20 04:32 | 39.85025 | -81.88715 | 38220 ft | 456 kts | 344° |
| 2026-04-20 04:32 | 39.91302 | -81.89826 | 38221 ft | 456 kts | 344° |
| 2026-04-20 04:33 | 39.97542 | -81.90939 | 38259 ft | 456 kts | 344° |
| 2026-04-20 04:33 | 40.03825 | -81.92064 | 38218 ft | 456 kts | 344° |
| 2026-04-20 04:34 | 40.10109 | -81.93191 | 38216 ft | 456 kts | 344° |
| 2026-04-20 04:34 | 40.16396 | -81.94320 | 38212 ft | 456 kts | 344° |
| 2026-04-20 04:35 | 40.22686 | -81.95453 | 38222 ft | 456 kts | 344° |
| 2026-04-20 04:35 | 40.28929 | -81.96579 | 38221 ft | 456 kts | 344° |
| 2026-04-20 04:36 | 40.38361 | -81.98284 | 38224 ft | 456 kts | 344° |
| 2026-04-20 04:37 | 40.44647 | -81.99423 | 38225 ft | 456 kts | 344° |
| 2026-04-20 04:37 | 40.50887 | -82.00557 | 38228 ft | 456 kts | 344° |
| 2026-04-20 04:38 | 40.57096 | -82.02010 | 38229 ft | 449 kts | 338° |
| 2026-04-20 04:38 | 40.63132 | -82.04065 | 38227 ft | 448 kts | 337° |
| 2026-04-20 04:39 | 40.69175 | -82.06145 | 38233 ft | 449 kts | 338° |
| 2026-04-20 04:39 | 40.75175 | -82.08203 | 38227 ft | 449 kts | 338° |
| 2026-04-20 04:40 | 40.81194 | -82.10263 | 37967 ft | 440 kts | 338° |
| 2026-04-20 04:40 | 40.84124 | -82.11263 | 37766 ft | 431 kts | 338° |
| 2026-04-20 04:40 | 40.86997 | -82.12246 | 37468 ft | 424 kts | 338° |
| 2026-04-20 04:40 | 40.89870 | -82.13239 | 36578 ft | 431 kts | 338° |
| 2026-04-20 04:41 | 40.92808 | -82.14261 | 35559 ft | 442 kts | 338° |
| 2026-04-20 04:41 | 40.95815 | -82.15301 | 34738 ft | 449 kts | 338° |
| 2026-04-20 04:41 | 40.98807 | -82.16331 | 34037 ft | 451 kts | 338° |
| 2026-04-20 04:41 | 41.01844 | -82.17374 | 33365 ft | 450 kts | 338° |
| 2026-04-20 04:42 | 41.04841 | -82.18399 | 32891 ft | 439 kts | 338° |
| 2026-04-20 04:42 | 41.07769 | -82.19402 | 32235 ft | 430 kts | 338° |
| 2026-04-20 04:42 | 41.08190 | -82.19547 | 32136 ft | 429 kts | 338° |
| 2026-04-20 04:48 | 41.11516 | -82.20693 | 31400 ft | 419 kts | 338° |
| 2026-04-20 04:48 | 41.14315 | -82.21660 | 30738 ft | 412 kts | 338° |
| 2026-04-20 04:49 | 41.17057 | -82.22609 | 30032 ft | 404 kts | 338° |
| 2026-04-20 04:49 | 41.19753 | -82.23543 | 29203 ft | 397 kts | 337° |
| 2026-04-20 04:49 | 41.22305 | -82.24625 | 28363 ft | 382 kts | 327° |
| 2026-04-20 04:49 | 41.23854 | -82.25843 | 27806 ft | 370 kts | 319° |
| 2026-04-20 04:51 | 41.25236 | -82.27194 | 27296 ft | 364 kts | 316° |
| 2026-04-20 04:52 | 41.27201 | -82.29256 | 26545 ft | 357 kts | 315° |
| 2026-04-20 04:52 | 41.29124 | -82.31302 | 25786 ft | 352 kts | 315° |
| 2026-04-20 04:52 | 41.30302 | -82.32553 | 25308 ft | 349 kts | 315° |
| 2026-04-20 04:55 | 41.30810 | -82.33092 | 25135 ft | 348 kts | 315° |
| 2026-04-20 04:55 | 41.32695 | -82.35086 | 24340 ft | 345 kts | 315° |
| 2026-04-20 04:55 | 41.34568 | -82.37062 | 23589 ft | 341 kts | 315° |
| 2026-04-20 04:55 | 41.36392 | -82.38983 | 22732 ft | 337 kts | 315° |
| 2026-04-20 04:56 | 41.38220 | -82.40908 | 21858 ft | 334 kts | 316° |
| 2026-04-20 04:56 | 41.40029 | -82.42812 | 21033 ft | 330 kts | 316° |
| 2026-04-20 04:56 | 41.41822 | -82.44701 | 20200 ft | 327 kts | 316° |
| 2026-04-20 04:56 | 41.43598 | -82.46573 | 19381 ft | 324 kts | 316° |
| 2026-04-20 04:57 | 41.45363 | -82.48433 | 18591 ft | 322 kts | 316° |
| 2026-04-20 04:57 | 41.47114 | -82.50281 | 17753 ft | 319 kts | 317° |
| 2026-04-20 04:57 | 41.48851 | -82.52115 | 17231 ft | 319 kts | 317° |
| 2026-04-20 04:57 | 41.50588 | -82.53951 | 17004 ft | 316 kts | 317° |
| 2026-04-20 04:58 | 41.52274 | -82.55731 | 16736 ft | 312 kts | 317° |
| 2026-04-20 04:58 | 41.53972 | -82.57528 | 16200 ft | 311 kts | 317° |
| 2026-04-20 04:58 | 41.55670 | -82.59326 | 15624 ft | 311 kts | 317° |
| 2026-04-20 04:58 | 41.57342 | -82.61094 | 15298 ft | 303 kts | 317° |
| 2026-04-20 04:59 | 41.58976 | -82.62825 | 14934 ft | 297 kts | 317° |
| 2026-04-20 04:59 | 41.60581 | -82.64526 | 14568 ft | 292 kts | 317° |
| 2026-04-20 04:59 | 41.62156 | -82.66198 | 14212 ft | 287 kts | 317° |
| 2026-04-20 04:59 | 41.63703 | -82.67841 | 13838 ft | 282 kts | 317° |
| 2026-04-20 05:00 | 41.65236 | -82.69470 | 13436 ft | 280 kts | 317° |
| 2026-04-20 05:00 | 41.66754 | -82.71087 | 13045 ft | 279 kts | 317° |
| 2026-04-20 05:00 | 41.68265 | -82.72695 | 12659 ft | 277 kts | 318° |
| 2026-04-20 05:00 | 41.68297 | -82.72729 | 12654 ft | 277 kts | 318° |
| 2026-04-20 05:03 | 41.69411 | -82.73915 | 12382 ft | 276 kts | 318° |
| 2026-04-20 05:03 | 41.70909 | -82.75511 | 12059 ft | 274 kts | 318° |
| 2026-04-20 05:03 | 41.72396 | -82.77095 | 11998 ft | 273 kts | 318° |
| 2026-04-20 05:04 | 41.73883 | -82.78683 | 11989 ft | 273 kts | 318° |
| 2026-04-20 05:04 | 41.75288 | -82.80383 | 11950 ft | 271 kts | 312° |
| 2026-04-20 05:04 | 41.76574 | -82.82197 | 11667 ft | 265 kts | 310° |
| 2026-04-20 05:04 | 41.77803 | -82.83997 | 11388 ft | 259 kts | 310° |
| 2026-04-20 05:05 | 41.79007 | -82.85766 | 11027 ft | 256 kts | 310° |
| 2026-04-20 05:05 | 41.80201 | -82.87521 | 10645 ft | 254 kts | 311° |
| 2026-04-20 05:05 | 41.81373 | -82.89242 | 10269 ft | 252 kts | 311° |
| 2026-04-20 05:05 | 41.82553 | -82.90973 | 9853 ft | 251 kts | 311° |
| 2026-04-20 05:06 | 41.83727 | -82.92695 | 9394 ft | 250 kts | 311° |
| 2026-04-20 05:06 | 41.84898 | -82.94412 | 9046 ft | 248 kts | 311° |
| 2026-04-20 05:06 | 41.86062 | -82.96120 | 8989 ft | 248 kts | 311° |
| 2026-04-20 05:06 | 41.87203 | -82.97859 | 8927 ft | 248 kts | 306° |
| 2026-04-20 05:07 | 41.87936 | -82.99935 | 8476 ft | 249 kts | 284° |
| 2026-04-20 05:07 | 41.88049 | -83.00790 | 8311 ft | 250 kts | 280° |
| 2026-04-20 05:07 | 41.88119 | -83.01600 | 8166 ft | 250 kts | 278° |
| 2026-04-20 05:07 | 41.88237 | -83.03923 | 7778 ft | 248 kts | 276° |
| 2026-04-20 05:08 | 41.88321 | -83.06186 | 7600 ft | 238 kts | 276° |
| 2026-04-20 05:08 | 41.88404 | -83.08353 | 7447 ft | 228 kts | 276° |
| 2026-04-20 05:08 | 41.88489 | -83.10424 | 7334 ft | 216 kts | 276° |
| 2026-04-20 05:08 | 41.88572 | -83.12377 | 7072 ft | 206 kts | 276° |
| 2026-04-20 05:09 | 41.88657 | -83.14288 | 6640 ft | 205 kts | 277° |
| 2026-04-20 05:09 | 41.88745 | -83.16195 | 6174 ft | 204 kts | 276° |
| 2026-04-20 05:09 | 41.88856 | -83.18099 | 5716 ft | 205 kts | 282° |
| 2026-04-20 05:09 | 41.89216 | -83.19936 | 5341 ft | 203 kts | 290° |
| 2026-04-20 05:10 | 41.89674 | -83.21705 | 5031 ft | 204 kts | 292° |
| 2026-04-20 05:10 | 41.90172 | -83.23487 | 4708 ft | 204 kts | 292° |
| 2026-04-20 05:10 | 41.90686 | -83.25271 | 4389 ft | 205 kts | 293° |
| 2026-04-20 05:10 | 41.91205 | -83.27050 | 4123 ft | 205 kts | 294° |
| 2026-04-20 05:11 | 41.91728 | -83.28828 | 3887 ft | 205 kts | 293° |
| 2026-04-20 05:11 | 41.92253 | -83.30611 | 3656 ft | 206 kts | 294° |
| 2026-04-20 05:11 | 41.92782 | -83.32399 | 3454 ft | 207 kts | 294° |
| 2026-04-20 05:11 | 41.93314 | -83.34198 | 3295 ft | 207 kts | 295° |
| 2026-04-20 05:12 | 41.93834 | -83.35962 | 3131 ft | 205 kts | 295° |
| 2026-04-20 05:12 | 41.94360 | -83.37742 | 3014 ft | 205 kts | 295° |
| 2026-04-20 05:12 | 41.94888 | -83.39529 | 2997 ft | 206 kts | 295° |
| 2026-04-20 05:12 | 41.95417 | -83.41324 | 2999 ft | 207 kts | 295° |
| 2026-04-20 05:13 | 41.95946 | -83.43119 | 2998 ft | 207 kts | 294° |
| 2026-04-20 05:13 | 41.96477 | -83.44924 | 2990 ft | 207 kts | 294° |
| 2026-04-20 05:13 | 41.97007 | -83.46725 | 2983 ft | 207 kts | 295° |
| 2026-04-20 05:13 | 41.97534 | -83.48517 | 2985 ft | 206 kts | 295° |
| 2026-04-20 05:14 | 41.98126 | -83.50272 | 2982 ft | 206 kts | 302° |
| 2026-04-20 05:14 | 41.98947 | -83.51817 | 2981 ft | 205 kts | 311° |
| 2026-04-20 05:14 | 42.00142 | -83.52738 | 2983 ft | 201 kts | 354° |
| 2026-04-20 05:14 | 42.01480 | -83.52299 | 2986 ft | 202 kts | 26° |
| 2026-04-20 05:15 | 42.02695 | -83.51318 | 2985 ft | 204 kts | 30° |
| 2026-04-20 05:15 | 42.03860 | -83.50408 | 2968 ft | 184 kts | 27° |
| 2026-04-20 05:15 | 42.04948 | -83.49607 | 2979 ft | 176 kts | 26° |
| 2026-04-20 05:15 | 42.06023 | -83.48825 | 2983 ft | 175 kts | 26° |
| 2026-04-20 05:16 | 42.07095 | -83.48046 | 2987 ft | 175 kts | 26° |
| 2026-04-20 05:16 | 42.08152 | -83.47274 | 2977 ft | 175 kts | 26° |
| 2026-04-20 05:16 | 42.09222 | -83.46489 | 2982 ft | 175 kts | 27° |
| 2026-04-20 05:16 | 42.10291 | -83.45701 | 2986 ft | 175 kts | 26° |
| 2026-04-20 05:17 | 42.11358 | -83.44916 | 2825 ft | 174 kts | 27° |
| 2026-04-20 05:17 | 42.12420 | -83.44135 | 2553 ft | 174 kts | 27° |
| 2026-04-20 05:17 | 42.13474 | -83.43360 | 2295 ft | 172 kts | 27° |
| 2026-04-20 05:17 | 42.14526 | -83.42587 | 2053 ft | 172 kts | 28° |
| 2026-04-20 05:18 | 42.15544 | -83.41837 | 1830 ft | 159 kts | 28° |
| 2026-04-20 05:18 | 42.16446 | -83.41173 | 1613 ft | 142 kts | 29° |
| 2026-04-20 05:18 | 42.17268 | -83.40559 | 1380 ft | 128 kts | 28° |
| 2026-04-20 05:18 | 42.18032 | -83.40005 | 1203 ft | 123 kts | 28° |
| 2026-04-20 05:19 | 42.18785 | -83.39447 | 1035 ft | 124 kts | 27° |
| 2026-04-20 05:19 | 42.19538 | -83.38894 | 853 ft | 122 kts | 29° |
| 2026-04-20 05:19 | 42.20280 | -83.38360 | 669 ft | 119 kts | 29° |
| 2026-04-20 05:19 | 42.20935 | -83.37871 | 652 ft | 94 kts | 28° |
| 2026-04-20 05:20 | 42.21308 | -83.37599 | 654 ft | 68 kts | 29° |
| 2026-04-20 05:21 | 42.21586 | -83.37383 | 653 ft | 43 kts | 33° |
| 2026-04-20 05:21 | 42.21744 | -83.37248 | 651 ft | 11 kts | 44° |
| 2026-04-20 05:21 | 42.21778 | -83.37199 | 650 ft | 9 kts | 49° |
| 2026-04-20 05:22 | 42.21791 | -83.37177 | 650 ft | 8 kts | 57° |
| 2026-04-20 05:22 | 42.21812 | -83.37117 | 653 ft | 6 kts | 67° |
| 2026-04-20 05:23 | 42.21820 | -83.37071 | 652 ft | 4 kts | 81° |
| 2026-04-20 05:23 | 42.21816 | -83.37035 | 652 ft | 4 kts | 111° |
| 2026-04-20 05:23 | 42.21801 | -83.37010 | 654 ft | 3 kts | 146° |
| 2026-04-20 05:23 | 42.21783 | -83.37008 | 652 ft | 0 kts | 187° |
| 2026-04-20 05:24 | 42.21787 | -83.37007 | 652 ft | 1 kts | 175° |
| 2026-04-20 05:25 | 42.21796 | -83.37008 | 653 ft | 2 kts | 158° |
| 2026-04-20 05:25 | 42.21799 | -83.37009 | 654 ft | 1 kts | 149° |
| 2026-04-20 05:25 | 42.21796 | -83.36968 | 652 ft | 4 kts | 30° |
| 2026-04-20 05:25 | 42.21843 | -83.36950 | 654 ft | 10 kts | 21° |
| 2026-04-20 05:26 | 42.21920 | -83.36895 | 654 ft | 15 kts | 29° |
| 2026-04-20 05:26 | 42.22013 | -83.36817 | 652 ft | 15 kts | 52° |
| 2026-04-20 05:26 | 42.21999 | -83.36680 | 652 ft | 18 kts | 119° |
| 2026-04-20 05:26 | 42.21931 | -83.36515 | 652 ft | 21 kts | 119° |
| 2026-04-20 05:27 | 42.21862 | -83.36345 | 653 ft | 21 kts | 120° |
| 2026-04-20 05:27 | 42.21812 | -83.36187 | 652 ft | 16 kts | 95° |
| 2026-04-20 05:27 | 42.21813 | -83.36033 | 652 ft | 17 kts | 89° |
| 2026-04-20 05:27 | 42.21815 | -83.35866 | 650 ft | 19 kts | 89° |
| 2026-04-20 05:28 | 42.21796 | -83.35818 | 651 ft | 5 kts | 182° |
| 2026-04-20 05:28 | 42.21730 | -83.35857 | 651 ft | 16 kts | 208° |
| 2026-04-20 05:28 | 42.21623 | -83.35939 | 651 ft | 18 kts | 207° |
| 2026-04-20 05:28 | 42.21509 | -83.35922 | 652 ft | 17 kts | 180° |
| 2026-04-20 05:29 | 42.21416 | -83.35918 | 652 ft | 12 kts | 124° |
| 2026-04-20 05:29 | 42.21373 | -83.35814 | 652 ft | 15 kts | 119° |
| 2026-04-20 05:29 | 42.21298 | -83.35741 | 653 ft | 15 kts | 168° |
| 2026-04-20 05:29 | 42.21185 | -83.35741 | 653 ft | 19 kts | 206° |
| 2026-04-20 05:30 | 42.21065 | -83.35825 | 653 ft | 12 kts | 207° |
| 2026-04-20 05:30 | 42.21006 | -83.35805 | 653 ft | 8 kts | 132° |
| 2026-04-20 05:30 | 42.20985 | -83.35761 | 655 ft | 3 kts | 119° |
| 2026-04-20 05:30 | 42.20984 | -83.35758 | 655 ft | 0 kts | 119° |